sensor_id;sensor_type;location;lat;lon;timestamp;temperature;humidity
24636;DHT22;12772;49.794;10.024;2023-12-29T00:01:08;11.90;70.90
24636;DHT22;12772;49.794;10.024;2023-12-29T00:05:10;11.60;70.70
24636;DHT22;12772;49.794;10.024;2023-12-29T00:09:14;11.90;71.00
24636;DHT22;12772;49.794;10.024;2023-12-29T00:13:16;11.50;70.60
24636;DHT22;12772;49.794;10.024;2023-12-29T00:17:23;11.90;71.10
24636;DHT22;12772;49.794;10.024;2023-12-29T00:21:25;11.90;70.80
24636;DHT22;12772;49.794;10.024;2023-12-29T00:25:27;11.60;70.40
24636;DHT22;12772;49.794;10.024;2023-12-29T00:29:29;11.50;70.40
24636;DHT22;12772;49.794;10.024;2023-12-29T00:33:33;12.20;70.90
24636;DHT22;12772;49.794;10.024;2023-12-29T00:37:35;11.60;70.50
24636;DHT22;12772;49.794;10.024;2023-12-29T00:41:38;12.00;70.90
24636;DHT22;12772;49.794;10.024;2023-12-29T00:45:41;11.90;70.70
24636;DHT22;12772;49.794;10.024;2023-12-29T00:49:43;11.70;70.30
24636;DHT22;12772;49.794;10.024;2023-12-29T00:53:45;11.90;70.40
24636;DHT22;12772;49.794;10.024;2023-12-29T00:57:47;11.40;70.10
24636;DHT22;12772;49.794;10.024;2023-12-29T01:01:49;11.60;70.40
24636;DHT22;12772;49.794;10.024;2023-12-29T01:05:52;12.00;70.70
24636;DHT22;12772;49.794;10.024;2023-12-29T01:09:54;11.90;70.70
24636;DHT22;12772;49.794;10.024;2023-12-29T01:13:56;11.60;70.60
24636;DHT22;12772;49.794;10.024;2023-12-29T01:17:58;11.80;70.90
24636;DHT22;12772;49.794;10.024;2023-12-29T01:22:04;11.50;70.70
24636;DHT22;12772;49.794;10.024;2023-12-29T01:26:06;11.80;71.30
24636;DHT22;12772;49.794;10.024;2023-12-29T01:30:09;11.80;71.30
24636;DHT22;12772;49.794;10.024;2023-12-29T01:34:11;12.00;71.50
24636;DHT22;12772;49.794;10.024;2023-12-29T01:38:13;11.80;71.40
24636;DHT22;12772;49.794;10.024;2023-12-29T01:42:15;11.90;71.30
24636;DHT22;12772;49.794;10.024;2023-12-29T01:46:17;11.50;70.80
24636;DHT22;12772;49.794;10.024;2023-12-29T01:50:21;11.90;71.00
24636;DHT22;12772;49.794;10.024;2023-12-29T01:54:25;11.80;70.90
24636;DHT22;12772;49.794;10.024;2023-12-29T01:58:29;11.40;70.70
24636;DHT22;12772;49.794;10.024;2023-12-29T02:02:32;11.60;71.20
24636;DHT22;12772;49.794;10.024;2023-12-29T02:06:34;11.70;71.20
24636;DHT22;12772;49.794;10.024;2023-12-29T02:10:37;11.70;71.20
24636;DHT22;12772;49.794;10.024;2023-12-29T02:14:39;11.50;71.00
24636;DHT22;12772;49.794;10.024;2023-12-29T02:18:44;11.70;71.00
24636;DHT22;12772;49.794;10.024;2023-12-29T02:22:47;11.80;71.20
24636;DHT22;12772;49.794;10.024;2023-12-29T02:26:57;11.30;70.80
24636;DHT22;12772;49.794;10.024;2023-12-29T02:31:09;11.60;70.90
24636;DHT22;12772;49.794;10.024;2023-12-29T02:35:17;11.30;70.60
24636;DHT22;12772;49.794;10.024;2023-12-29T02:39:20;11.70;70.90
24636;DHT22;12772;49.794;10.024;2023-12-29T02:43:22;11.70;71.20
24636;DHT22;12772;49.794;10.024;2023-12-29T02:47:24;11.50;71.00
24636;DHT22;12772;49.794;10.024;2023-12-29T02:51:26;11.40;70.70
24636;DHT22;12772;49.794;10.024;2023-12-29T02:55:28;11.70;71.30
24636;DHT22;12772;49.794;10.024;2023-12-29T02:59:30;11.80;71.00
24636;DHT22;12772;49.794;10.024;2023-12-29T03:03:32;11.60;70.80
24636;DHT22;12772;49.794;10.024;2023-12-29T03:07:35;11.80;70.70
24636;DHT22;12772;49.794;10.024;2023-12-29T03:11:37;11.80;70.40
24636;DHT22;12772;49.794;10.024;2023-12-29T03:15:39;11.40;70.10
24636;DHT22;12772;49.794;10.024;2023-12-29T03:19:40;11.80;70.00
24636;DHT22;12772;49.794;10.024;2023-12-29T03:23:42;11.80;69.70
24636;DHT22;12772;49.794;10.024;2023-12-29T03:27:44;11.80;69.70
24636;DHT22;12772;49.794;10.024;2023-12-29T03:31:46;11.90;69.50
24636;DHT22;12772;49.794;10.024;2023-12-29T03:35:48;11.60;68.30
24636;DHT22;12772;49.794;10.024;2023-12-29T03:39:50;11.80;68.10
24636;DHT22;12772;49.794;10.024;2023-12-29T03:43:52;11.70;68.00
24636;DHT22;12772;49.794;10.024;2023-12-29T03:47:54;11.70;68.00
24636;DHT22;12772;49.794;10.024;2023-12-29T03:51:57;11.50;67.80
24636;DHT22;12772;49.794;10.024;2023-12-29T03:55:59;11.70;68.00
24636;DHT22;12772;49.794;10.024;2023-12-29T04:00:01;11.20;67.10
24636;DHT22;12772;49.794;10.024;2023-12-29T04:04:03;11.60;67.20
24636;DHT22;12772;49.794;10.024;2023-12-29T04:08:05;11.50;67.10
24636;DHT22;12772;49.794;10.024;2023-12-29T04:12:07;11.60;66.90
24636;DHT22;12772;49.794;10.024;2023-12-29T04:16:09;11.40;66.30
24636;DHT22;12772;49.794;10.024;2023-12-29T04:20:11;11.50;66.50
24636;DHT22;12772;49.794;10.024;2023-12-29T04:24:13;11.30;66.20
24636;DHT22;12772;49.794;10.024;2023-12-29T04:28:15;11.80;66.30
24636;DHT22;12772;49.794;10.024;2023-12-29T04:32:18;11.50;66.10
24636;DHT22;12772;49.794;10.024;2023-12-29T04:36:19;11.30;65.50
24636;DHT22;12772;49.794;10.024;2023-12-29T04:40:22;11.50;65.70
24636;DHT22;12772;49.794;10.024;2023-12-29T04:44:23;11.70;66.00
24636;DHT22;12772;49.794;10.024;2023-12-29T04:48:26;11.50;66.00
24636;DHT22;12772;49.794;10.024;2023-12-29T04:52:28;11.10;65.90
24636;DHT22;12772;49.794;10.024;2023-12-29T04:56:30;11.20;65.40
24636;DHT22;12772;49.794;10.024;2023-12-29T05:00:32;11.40;65.70
24636;DHT22;12772;49.794;10.024;2023-12-29T05:04:34;11.20;65.50
24636;DHT22;12772;49.794;10.024;2023-12-29T05:08:36;11.20;65.60
24636;DHT22;12772;49.794;10.024;2023-12-29T05:12:38;11.40;65.50
24636;DHT22;12772;49.794;10.024;2023-12-29T05:16:43;11.30;65.50
24636;DHT22;12772;49.794;10.024;2023-12-29T05:20:45;11.60;65.70
24636;DHT22;12772;49.794;10.024;2023-12-29T05:24:47;10.80;65.30
24636;DHT22;12772;49.794;10.024;2023-12-29T05:28:49;10.80;65.50
24636;DHT22;12772;49.794;10.024;2023-12-29T05:32:51;10.80;65.70
24636;DHT22;12772;49.794;10.024;2023-12-29T05:36:53;10.80;65.90
24636;DHT22;12772;49.794;10.024;2023-12-29T05:40:55;11.20;66.40
24636;DHT22;12772;49.794;10.024;2023-12-29T05:44:57;11.00;66.40
24636;DHT22;12772;49.794;10.024;2023-12-29T05:48:59;11.00;66.70
24636;DHT22;12772;49.794;10.024;2023-12-29T05:53:01;11.10;67.00
24636;DHT22;12772;49.794;10.024;2023-12-29T05:57:03;11.00;67.40
24636;DHT22;12772;49.794;10.024;2023-12-29T06:01:05;11.20;67.60
24636;DHT22;12772;49.794;10.024;2023-12-29T06:05:10;11.00;67.50
24636;DHT22;12772;49.794;10.024;2023-12-29T06:09:12;11.00;67.50
24636;DHT22;12772;49.794;10.024;2023-12-29T06:13:14;10.80;67.30
24636;DHT22;12772;49.794;10.024;2023-12-29T06:17:16;11.10;67.50
24636;DHT22;12772;49.794;10.024;2023-12-29T06:21:19;10.80;67.30
24636;DHT22;12772;49.794;10.024;2023-12-29T06:25:21;11.00;67.40
24636;DHT22;12772;49.794;10.024;2023-12-29T06:29:23;10.80;67.30
24636;DHT22;12772;49.794;10.024;2023-12-29T06:33:25;10.50;67.00
24636;DHT22;12772;49.794;10.024;2023-12-29T06:37:27;10.80;67.30
24636;DHT22;12772;49.794;10.024;2023-12-29T06:41:29;10.60;67.20
24636;DHT22;12772;49.794;10.024;2023-12-29T06:45:31;11.10;67.50
24636;DHT22;12772;49.794;10.024;2023-12-29T06:49:34;11.00;67.50
24636;DHT22;12772;49.794;10.024;2023-12-29T06:53:36;11.30;67.70
24636;DHT22;12772;49.794;10.024;2023-12-29T06:57:40;10.70;67.20
24636;DHT22;12772;49.794;10.024;2023-12-29T07:01:42;10.70;67.20
24636;DHT22;12772;49.794;10.024;2023-12-29T07:10:41;11.30;67.70
24636;DHT22;12772;49.794;10.024;2023-12-29T07:14:44;11.00;67.40
24636;DHT22;12772;49.794;10.024;2023-12-29T07:18:46;10.70;67.20
24636;DHT22;12772;49.794;10.024;2023-12-29T07:22:49;11.00;67.50
24636;DHT22;12772;49.794;10.024;2023-12-29T07:26:51;11.30;67.70
24636;DHT22;12772;49.794;10.024;2023-12-29T07:30:53;11.20;67.80
24636;DHT22;12772;49.794;10.024;2023-12-29T07:34:55;11.20;67.60
24636;DHT22;12772;49.794;10.024;2023-12-29T07:38:58;11.20;67.60
24636;DHT22;12772;49.794;10.024;2023-12-29T07:43:00;11.20;67.60
24636;DHT22;12772;49.794;10.024;2023-12-29T07:47:03;10.80;67.30
24636;DHT22;12772;49.794;10.024;2023-12-29T07:51:06;11.30;67.70
24636;DHT22;12772;49.794;10.024;2023-12-29T07:55:08;11.30;67.70
24636;DHT22;12772;49.794;10.024;2023-12-29T07:59:10;11.30;67.70
24636;DHT22;12772;49.794;10.024;2023-12-29T08:03:12;11.20;67.60
24636;DHT22;12772;49.794;10.024;2023-12-29T08:07:14;11.20;67.60
24636;DHT22;12772;49.794;10.024;2023-12-29T08:11:17;11.40;67.80
24636;DHT22;12772;49.794;10.024;2023-12-29T08:15:19;11.50;67.80
24636;DHT22;12772;49.794;10.024;2023-12-29T08:19:21;11.70;68.00
24636;DHT22;12772;49.794;10.024;2023-12-29T08:23:23;11.40;67.80
24636;DHT22;12772;49.794;10.024;2023-12-29T08:27:27;11.10;67.50
24636;DHT22;12772;49.794;10.024;2023-12-29T08:31:29;11.30;67.70
24636;DHT22;12772;49.794;10.024;2023-12-29T08:35:31;11.60;67.90
24636;DHT22;12772;49.794;10.024;2023-12-29T08:39:33;11.60;67.90
24636;DHT22;12772;49.794;10.024;2023-12-29T08:43:35;11.50;67.80
24636;DHT22;12772;49.794;10.024;2023-12-29T08:47:37;11.50;67.80
24636;DHT22;12772;49.794;10.024;2023-12-29T08:51:39;11.20;67.60
24636;DHT22;12772;49.794;10.024;2023-12-29T08:55:41;11.60;67.90
24636;DHT22;12772;49.794;10.024;2023-12-29T08:59:43;11.60;67.90
24636;DHT22;12772;49.794;10.024;2023-12-29T09:03:45;11.20;67.60
24636;DHT22;12772;49.794;10.024;2023-12-29T09:07:47;11.90;68.20
24636;DHT22;12772;49.794;10.024;2023-12-29T09:11:49;11.50;67.20
24636;DHT22;12772;49.794;10.024;2023-12-29T09:15:51;11.70;67.70
24636;DHT22;12772;49.794;10.024;2023-12-29T09:19:54;11.70;67.30
24636;DHT22;12772;49.794;10.024;2023-12-29T09:23:56;11.70;67.00
24636;DHT22;12772;49.794;10.024;2023-12-29T09:27:59;11.70;66.90
24636;DHT22;12772;49.794;10.024;2023-12-29T09:32:01;11.60;66.40
24636;DHT22;12772;49.794;10.024;2023-12-29T09:36:04;11.80;66.00
24636;DHT22;12772;49.794;10.024;2023-12-29T09:40:06;11.90;66.00
24636;DHT22;12772;49.794;10.024;2023-12-29T09:44:13;11.80;65.60
24636;DHT22;12772;49.794;10.024;2023-12-29T09:48:16;11.90;65.20
24636;DHT22;12772;49.794;10.024;2023-12-29T09:52:21;11.50;65.00
24636;DHT22;12772;49.794;10.024;2023-12-29T09:56:23;11.90;65.60
24636;DHT22;12772;49.794;10.024;2023-12-29T10:00:25;11.50;64.70
24636;DHT22;12772;49.794;10.024;2023-12-29T10:04:28;12.00;65.20
24636;DHT22;12772;49.794;10.024;2023-12-29T10:08:32;11.60;65.10
24636;DHT22;12772;49.794;10.024;2023-12-29T10:12:36;11.70;65.20
24636;DHT22;12772;49.794;10.024;2023-12-29T10:16:55;11.80;65.40
24636;DHT22;12772;49.794;10.024;2023-12-29T10:21:09;12.00;66.00
24636;DHT22;12772;49.794;10.024;2023-12-29T10:25:14;12.00;65.70
24636;DHT22;12772;49.794;10.024;2023-12-29T10:29:17;12.10;65.70
24636;DHT22;12772;49.794;10.024;2023-12-29T10:33:21;12.00;65.80
24636;DHT22;12772;49.794;10.024;2023-12-29T10:37:25;11.60;65.30
24636;DHT22;12772;49.794;10.024;2023-12-29T10:41:27;11.90;65.20
24636;DHT22;12772;49.794;10.024;2023-12-29T10:45:29;11.80;65.20
24636;DHT22;12772;49.794;10.024;2023-12-29T10:49:31;11.90;65.10
24636;DHT22;12772;49.794;10.024;2023-12-29T10:53:34;12.30;65.20
24636;DHT22;12772;49.794;10.024;2023-12-29T10:57:37;12.30;64.90
24636;DHT22;12772;49.794;10.024;2023-12-29T11:01:39;12.40;64.50
24636;DHT22;12772;49.794;10.024;2023-12-29T11:05:41;12.00;63.90
24636;DHT22;12772;49.794;10.024;2023-12-29T11:09:44;12.10;63.80
24636;DHT22;12772;49.794;10.024;2023-12-29T11:13:46;12.60;64.10
24636;DHT22;12772;49.794;10.024;2023-12-29T11:17:50;12.70;62.90
24636;DHT22;12772;49.794;10.024;2023-12-29T11:21:55;12.80;62.10
24636;DHT22;12772;49.794;10.024;2023-12-29T11:25:57;12.90;61.30
24636;DHT22;12772;49.794;10.024;2023-12-29T11:30:03;13.00;60.20
24636;DHT22;12772;49.794;10.024;2023-12-29T11:34:19;12.50;59.80
24636;DHT22;12772;49.794;10.024;2023-12-29T11:42:42;12.90;60.20
24636;DHT22;12772;49.794;10.024;2023-12-29T11:46:45;12.90;60.20
24636;DHT22;12772;49.794;10.024;2023-12-29T11:50:47;12.90;60.20
24636;DHT22;12772;49.794;10.024;2023-12-29T11:54:49;12.90;60.10
24636;DHT22;12772;49.794;10.024;2023-12-29T11:58:51;12.50;59.70
24636;DHT22;12772;49.794;10.024;2023-12-29T12:02:53;12.50;59.80
24636;DHT22;12772;49.794;10.024;2023-12-29T12:06:55;12.90;60.20
24636;DHT22;12772;49.794;10.024;2023-12-29T12:15:32;12.90;60.10
24636;DHT22;12772;49.794;10.024;2023-12-29T12:19:35;12.90;60.20
24636;DHT22;12772;49.794;10.024;2023-12-29T12:23:37;12.90;60.20
24636;DHT22;12772;49.794;10.024;2023-12-29T12:27:42;12.80;60.10
24636;DHT22;12772;49.794;10.024;2023-12-29T12:31:57;12.90;60.10
24636;DHT22;12772;49.794;10.024;2023-12-29T12:36:00;12.90;60.20
24636;DHT22;12772;49.794;10.024;2023-12-29T12:40:02;12.90;60.20
24636;DHT22;12772;49.794;10.024;2023-12-29T12:44:14;12.90;60.10
24636;DHT22;12772;49.794;10.024;2023-12-29T12:48:28;12.90;60.20
24636;DHT22;12772;49.794;10.024;2023-12-29T12:52:35;12.90;60.20
24636;DHT22;12772;49.794;10.024;2023-12-29T12:56:37;12.90;60.10
24636;DHT22;12772;49.794;10.024;2023-12-29T13:00:39;12.90;60.20
24636;DHT22;12772;49.794;10.024;2023-12-29T13:04:42;12.60;59.90
24636;DHT22;12772;49.794;10.024;2023-12-29T13:08:48;13.00;60.20
24636;DHT22;12772;49.794;10.024;2023-12-29T13:12:54;13.00;60.20
24636;DHT22;12772;49.794;10.024;2023-12-29T13:16:56;13.00;60.20
24636;DHT22;12772;49.794;10.024;2023-12-29T13:20:59;13.00;60.00
24636;DHT22;12772;49.794;10.024;2023-12-29T13:25:05;13.10;60.10
24636;DHT22;12772;49.794;10.024;2023-12-29T13:29:08;13.10;59.80
24636;DHT22;12772;49.794;10.024;2023-12-29T13:33:25;13.10;58.40
24636;DHT22;12772;49.794;10.024;2023-12-29T13:41:37;13.10;58.60
24636;DHT22;12772;49.794;10.024;2023-12-29T13:45:40;13.20;58.90
24636;DHT22;12772;49.794;10.024;2023-12-29T13:49:43;13.20;58.30
24636;DHT22;12772;49.794;10.024;2023-12-29T13:53:45;13.20;58.00
24636;DHT22;12772;49.794;10.024;2023-12-29T13:57:47;13.20;58.00
24636;DHT22;12772;49.794;10.024;2023-12-29T14:01:49;13.30;57.70
24636;DHT22;12772;49.794;10.024;2023-12-29T14:05:54;13.30;57.00
24636;DHT22;12772;49.794;10.024;2023-12-29T14:09:57;13.30;56.10
24636;DHT22;12772;49.794;10.024;2023-12-29T14:13:59;13.30;55.90
24636;DHT22;12772;49.794;10.024;2023-12-29T14:18:02;13.30;55.50
24636;DHT22;12772;49.794;10.024;2023-12-29T14:22:05;13.30;55.70
24636;DHT22;12772;49.794;10.024;2023-12-29T14:26:08;13.30;56.20
24636;DHT22;12772;49.794;10.024;2023-12-29T14:30:19;13.30;56.40
24636;DHT22;12772;49.794;10.024;2023-12-29T14:34:22;13.20;57.00
24636;DHT22;12772;49.794;10.024;2023-12-29T14:38:24;13.20;57.70
24636;DHT22;12772;49.794;10.024;2023-12-29T14:42:26;13.10;58.40
24636;DHT22;12772;49.794;10.024;2023-12-29T14:46:28;13.00;59.10
24636;DHT22;12772;49.794;10.024;2023-12-29T14:50:30;13.00;60.20
24636;DHT22;12772;49.794;10.024;2023-12-29T14:54:32;12.80;60.10
24636;DHT22;12772;49.794;10.024;2023-12-29T14:58:34;13.00;60.20
24636;DHT22;12772;49.794;10.024;2023-12-29T15:02:37;13.00;60.20
24636;DHT22;12772;49.794;10.024;2023-12-29T15:06:39;12.90;60.20
24636;DHT22;12772;49.794;10.024;2023-12-29T15:10:41;12.90;60.20
24636;DHT22;12772;49.794;10.024;2023-12-29T15:14:44;12.90;60.20
24636;DHT22;12772;49.794;10.024;2023-12-29T15:18:46;12.90;60.20
24636;DHT22;12772;49.794;10.024;2023-12-29T15:22:49;12.90;60.40
24636;DHT22;12772;49.794;10.024;2023-12-29T15:26:51;12.90;60.50
24636;DHT22;12772;49.794;10.024;2023-12-29T15:30:53;12.40;60.20
24636;DHT22;12772;49.794;10.024;2023-12-29T15:34:55;12.80;60.70
24636;DHT22;12772;49.794;10.024;2023-12-29T15:38:57;12.70;60.70
24636;DHT22;12772;49.794;10.024;2023-12-29T15:43:00;12.70;61.00
24636;DHT22;12772;49.794;10.024;2023-12-29T15:47:03;12.70;61.10
24636;DHT22;12772;49.794;10.024;2023-12-29T15:51:08;12.80;61.30
24636;DHT22;12772;49.794;10.024;2023-12-29T15:55:11;12.60;61.30
24636;DHT22;12772;49.794;10.024;2023-12-29T15:59:12;12.80;61.50
24636;DHT22;12772;49.794;10.024;2023-12-29T16:03:15;12.60;61.50
24636;DHT22;12772;49.794;10.024;2023-12-29T16:07:17;12.60;61.50
24636;DHT22;12772;49.794;10.024;2023-12-29T16:15:24;12.70;61.50
24636;DHT22;12772;49.794;10.024;2023-12-29T16:19:26;12.60;61.20
24636;DHT22;12772;49.794;10.024;2023-12-29T16:23:28;12.60;61.10
24636;DHT22;12772;49.794;10.024;2023-12-29T16:27:30;12.60;61.20
24636;DHT22;12772;49.794;10.024;2023-12-29T16:31:32;12.30;60.30
24636;DHT22;12772;49.794;10.024;2023-12-29T16:35:34;12.20;60.40
24636;DHT22;12772;49.794;10.024;2023-12-29T16:39:40;12.90;60.60
24636;DHT22;12772;49.794;10.024;2023-12-29T16:43:42;12.70;60.20
24636;DHT22;12772;49.794;10.024;2023-12-29T16:47:44;12.60;59.90
24636;DHT22;12772;49.794;10.024;2023-12-29T16:51:46;12.60;59.90
24636;DHT22;12772;49.794;10.024;2023-12-29T16:55:48;12.10;59.40
24636;DHT22;12772;49.794;10.024;2023-12-29T16:59:51;12.20;59.40
24636;DHT22;12772;49.794;10.024;2023-12-29T17:03:53;12.50;59.80
24636;DHT22;12772;49.794;10.024;2023-12-29T17:07:55;12.50;59.80
24636;DHT22;12772;49.794;10.024;2023-12-29T17:11:57;12.50;59.80
24636;DHT22;12772;49.794;10.024;2023-12-29T17:15:59;12.50;59.80
24636;DHT22;12772;49.794;10.024;2023-12-29T17:20:02;12.20;59.50
24636;DHT22;12772;49.794;10.024;2023-12-29T17:24:05;12.40;59.70
24636;DHT22;12772;49.794;10.024;2023-12-29T17:28:07;12.40;59.70
24636;DHT22;12772;49.794;10.024;2023-12-29T17:32:09;12.40;59.70
24636;DHT22;12772;49.794;10.024;2023-12-29T17:36:11;12.00;59.20
24636;DHT22;12772;49.794;10.024;2023-12-29T17:40:13;12.10;59.30
24636;DHT22;12772;49.794;10.024;2023-12-29T17:44:15;12.30;59.60
24636;DHT22;12772;49.794;10.024;2023-12-29T17:48:17;12.30;59.60
24636;DHT22;12772;49.794;10.024;2023-12-29T17:52:19;12.30;59.60
24636;DHT22;12772;49.794;10.024;2023-12-29T17:56:22;11.90;59.20
24636;DHT22;12772;49.794;10.024;2023-12-29T18:00:24;12.00;59.20
24636;DHT22;12772;49.794;10.024;2023-12-29T18:04:29;12.00;59.20
24636;DHT22;12772;49.794;10.024;2023-12-29T18:08:31;12.00;59.20
24636;DHT22;12772;49.794;10.024;2023-12-29T18:12:33;12.40;59.60
24636;DHT22;12772;49.794;10.024;2023-12-29T18:16:41;12.30;59.60
24636;DHT22;12772;49.794;10.024;2023-12-29T18:20:43;12.20;59.50
24636;DHT22;12772;49.794;10.024;2023-12-29T18:24:49;12.20;59.50
24636;DHT22;12772;49.794;10.024;2023-12-29T18:28:51;11.90;59.10
24636;DHT22;12772;49.794;10.024;2023-12-29T18:32:53;12.20;59.40
24636;DHT22;12772;49.794;10.024;2023-12-29T18:36:55;12.20;59.50
24636;DHT22;12772;49.794;10.024;2023-12-29T18:40:58;11.90;58.50
24636;DHT22;12772;49.794;10.024;2023-12-29T18:45:00;12.20;58.70
24636;DHT22;12772;49.794;10.024;2023-12-29T18:49:02;12.20;58.50
24636;DHT22;12772;49.794;10.024;2023-12-29T18:53:07;11.90;58.20
24636;DHT22;12772;49.794;10.024;2023-12-29T18:57:12;12.20;58.20
24636;DHT22;12772;49.794;10.024;2023-12-29T19:01:16;12.20;58.20
24636;DHT22;12772;49.794;10.024;2023-12-29T19:05:18;11.80;57.30
24636;DHT22;12772;49.794;10.024;2023-12-29T19:09:21;11.70;57.20
24636;DHT22;12772;49.794;10.024;2023-12-29T19:13:23;12.10;57.40
24636;DHT22;12772;49.794;10.024;2023-12-29T19:17:25;12.00;56.90
24636;DHT22;12772;49.794;10.024;2023-12-29T19:21:27;12.10;56.90
24636;DHT22;12772;49.794;10.024;2023-12-29T19:25:30;12.10;57.20
24636;DHT22;12772;49.794;10.024;2023-12-29T19:29:34;12.10;57.30
24636;DHT22;12772;49.794;10.024;2023-12-29T19:33:36;12.10;56.90
24636;DHT22;12772;49.794;10.024;2023-12-29T19:37:38;11.80;56.20
24636;DHT22;12772;49.794;10.024;2023-12-29T19:41:43;11.80;56.30
24636;DHT22;12772;49.794;10.024;2023-12-29T19:45:45;12.20;56.60
24636;DHT22;12772;49.794;10.024;2023-12-29T19:49:47;12.20;56.10
24636;DHT22;12772;49.794;10.024;2023-12-29T19:53:49;12.10;55.70
24636;DHT22;12772;49.794;10.024;2023-12-29T19:57:51;12.20;55.70
24636;DHT22;12772;49.794;10.024;2023-12-29T20:01:53;12.20;55.50
24636;DHT22;12772;49.794;10.024;2023-12-29T20:05:55;12.20;55.40
24636;DHT22;12772;49.794;10.024;2023-12-29T20:09:57;12.10;55.20
24636;DHT22;12772;49.794;10.024;2023-12-29T20:14:00;11.70;54.50
24636;DHT22;12772;49.794;10.024;2023-12-29T20:18:04;12.20;54.90
24636;DHT22;12772;49.794;10.024;2023-12-29T20:22:06;12.20;54.70
24636;DHT22;12772;49.794;10.024;2023-12-29T20:26:09;12.20;54.60
24636;DHT22;12772;49.794;10.024;2023-12-29T20:30:11;12.00;54.10
24636;DHT22;12772;49.794;10.024;2023-12-29T20:34:13;12.20;54.20
24636;DHT22;12772;49.794;10.024;2023-12-29T20:38:16;12.30;54.00
24636;DHT22;12772;49.794;10.024;2023-12-29T20:42:18;11.90;53.60
24636;DHT22;12772;49.794;10.024;2023-12-29T20:46:21;12.30;53.90
24636;DHT22;12772;49.794;10.024;2023-12-29T20:50:23;12.10;53.40
24636;DHT22;12772;49.794;10.024;2023-12-29T20:54:25;11.90;53.20
24636;DHT22;12772;49.794;10.024;2023-12-29T20:58:28;12.20;53.80
24636;DHT22;12772;49.794;10.024;2023-12-29T21:02:30;12.20;53.70
24636;DHT22;12772;49.794;10.024;2023-12-29T21:06:32;12.30;53.70
24636;DHT22;12772;49.794;10.024;2023-12-29T21:10:35;12.00;53.30
24636;DHT22;12772;49.794;10.024;2023-12-29T21:14:37;12.20;53.70
24636;DHT22;12772;49.794;10.024;2023-12-29T21:18:39;12.20;53.80
24636;DHT22;12772;49.794;10.024;2023-12-29T21:22:41;12.20;53.90
24636;DHT22;12772;49.794;10.024;2023-12-29T21:26:44;12.20;53.90
24636;DHT22;12772;49.794;10.024;2023-12-29T21:30:46;11.80;53.40
24636;DHT22;12772;49.794;10.024;2023-12-29T21:34:49;12.20;54.00
24636;DHT22;12772;49.794;10.024;2023-12-29T21:38:53;12.00;53.70
24636;DHT22;12772;49.794;10.024;2023-12-29T21:42:55;12.10;54.40
24636;DHT22;12772;49.794;10.024;2023-12-29T21:46:57;12.00;54.30
24636;DHT22;12772;49.794;10.024;2023-12-29T21:51:05;11.70;54.00
24636;DHT22;12772;49.794;10.024;2023-12-29T21:55:07;12.00;54.60
24636;DHT22;12772;49.794;10.024;2023-12-29T21:59:09;12.00;55.50
24636;DHT22;12772;49.794;10.024;2023-12-29T22:03:12;11.80;54.70
24636;DHT22;12772;49.794;10.024;2023-12-29T22:07:14;11.90;54.90
24636;DHT22;12772;49.794;10.024;2023-12-29T22:11:16;11.50;54.20
24636;DHT22;12772;49.794;10.024;2023-12-29T22:15:19;11.80;54.80
24636;DHT22;12772;49.794;10.024;2023-12-29T22:19:21;12.10;54.90
24636;DHT22;12772;49.794;10.024;2023-12-29T22:23:23;12.00;54.80
24636;DHT22;12772;49.794;10.024;2023-12-29T22:27:25;12.00;55.00
24636;DHT22;12772;49.794;10.024;2023-12-29T22:31:27;11.70;54.80
24636;DHT22;12772;49.794;10.024;2023-12-29T22:35:29;11.50;55.00
24636;DHT22;12772;49.794;10.024;2023-12-29T22:39:31;12.00;56.40
24636;DHT22;12772;49.794;10.024;2023-12-29T22:43:33;11.60;56.10
24636;DHT22;12772;49.794;10.024;2023-12-29T22:47:35;11.90;57.00
24636;DHT22;12772;49.794;10.024;2023-12-29T22:51:37;12.10;58.30
24636;DHT22;12772;49.794;10.024;2023-12-29T22:55:39;11.70;57.80
24636;DHT22;12772;49.794;10.024;2023-12-29T22:59:41;11.90;58.40
24636;DHT22;12772;49.794;10.024;2023-12-29T23:03:45;11.50;58.30
24636;DHT22;12772;49.794;10.024;2023-12-29T23:07:48;11.90;58.30
24636;DHT22;12772;49.794;10.024;2023-12-29T23:11:50;11.80;58.20
24636;DHT22;12772;49.794;10.024;2023-12-29T23:15:52;11.50;58.60
24636;DHT22;12772;49.794;10.024;2023-12-29T23:19:54;11.60;58.80
24636;DHT22;12772;49.794;10.024;2023-12-29T23:23:56;11.50;58.60
24636;DHT22;12772;49.794;10.024;2023-12-29T23:27:58;11.90;59.10
24636;DHT22;12772;49.794;10.024;2023-12-29T23:32:00;11.80;59.00
24636;DHT22;12772;49.794;10.024;2023-12-29T23:36:02;11.90;59.10
24636;DHT22;12772;49.794;10.024;2023-12-29T23:40:04;11.80;59.00
24636;DHT22;12772;49.794;10.024;2023-12-29T23:44:07;11.90;59.10
24636;DHT22;12772;49.794;10.024;2023-12-29T23:48:09;11.40;58.60
24636;DHT22;12772;49.794;10.024;2023-12-29T23:52:11;11.50;59.30
24636;DHT22;12772;49.794;10.024;2023-12-29T23:56:13;11.50;60.10
